Time;durP1;ratioP1;P1;durP2;ratioP2;P2;SDS_P1;SDS_P2;PMS_P1;PMS_P2;Temp;Humidity;BMP_temperature;BMP_pressure;BME280_temperature;BME280_humidity;BME280_pressure;Samples;Min_cycle;Max_cycle;Signal;HPM_P1;HPM_P2
2022/10/31 00:02:24;;;;;;;0.10;0.10;;;12.80;99.90;;;;;;5037256;28;20056;-77
2022/10/31 00:04:49;;;;;;;0.20;0.20;;;13.00;99.90;;;;;;5037326;28;20025;-77
2022/10/31 00:07:15;;;;;;;0.10;0.10;;;13.10;99.90;;;;;;5037156;28;20020;-77
2022/10/31 00:09:41;;;;;;;0.15;0.15;;;13.40;99.90;;;;;;5036978;28;20017;-77
2022/10/31 00:12:07;;;;;;;0.20;0.20;;;13.50;99.90;;;;;;5037175;28;20146;-77
2022/10/31 00:14:32;;;;;;;0.20;0.20;;;13.60;99.90;;;;;;5054818;28;20024;-77
2022/10/31 00:16:58;;;;;;;1.40;1.00;;;13.60;99.90;;;;;;5054926;28;20377;-77
2022/10/31 00:19:24;;;;;;;0.40;0.40;;;13.80;99.90;;;;;;5054943;28;20025;-77
2022/10/31 00:21:52;;;;;;;0.20;0.20;;;14.00;99.90;;;;;;5054944;28;20029;-77
2022/10/31 00:24:18;;;;;;;0.10;0.10;;;13.80;99.90;;;;;;5054888;28;20017;-77
2022/10/31 00:26:44;;;;;;;0.35;0.35;;;13.80;99.90;;;;;;5054501;28;20239;-77
2022/10/31 00:29:10;;;;;;;0.13;0.13;;;13.70;99.90;;;;;;5054729;28;20486;-77
2022/10/31 00:31:36;;;;;;;0.10;0.10;;;13.70;99.90;;;;;;5036909;28;20116;-77
2022/10/31 00:34:02;;;;;;;0.20;0.20;;;13.70;99.90;;;;;;5054588;28;20092;-77
2022/10/31 00:36:28;;;;;;;0.30;0.30;;;13.70;99.90;;;;;;5054685;28;20048;-77
2022/10/31 00:38:54;;;;;;;0.20;0.20;;;13.70;99.90;;;;;;5054624;28;20064;-77
2022/10/31 00:41:20;;;;;;;0.20;0.20;;;13.40;99.90;;;;;;5036543;28;20033;-77
2022/10/31 00:43:45;;;;;;;0.30;0.30;;;13.40;99.90;;;;;;5054343;28;20485;-77
2022/10/31 00:46:12;;;;;;;0.15;0.15;;;13.30;99.90;;;;;;5036018;28;20393;-77
2022/10/31 00:48:38;;;;;;;1.40;1.30;;;13.20;99.90;;;;;;5053395;28;20025;-77
2022/10/31 00:51:04;;;;;;;0.20;0.20;;;13.10;99.90;;;;;;5054722;28;20025;-77
2022/10/31 00:53:30;;;;;;;0.10;0.10;;;13.10;99.90;;;;;;5054361;28;20484;-77
2022/10/31 00:55:55;;;;;;;0.47;0.47;;;13.10;99.90;;;;;;5054001;28;20471;-77
2022/10/31 00:58:21;;;;;;;0.20;0.20;;;13.20;99.90;;;;;;5054200;28;20020;-77
2022/10/31 01:00:54;;;;;;;0.20;0.20;;;13.30;99.90;;;;;;5036338;28;20021;-77
2022/10/31 01:03:26;;;;;;;1.17;1.02;;;13.20;99.90;;;;;;5036141;28;20481;-77
2022/10/31 01:06:07;;;;;;;0.10;0.10;;;13.20;99.90;;;;;;5035950;28;20021;-77
2022/10/31 01:08:34;;;;;;;6.43;0.50;;;13.10;99.90;;;;;;5053916;28;20056;-77
2022/10/31 01:11:03;;;;;;;0.20;0.20;;;13.00;99.90;;;;;;5054096;28;20664;-77
2022/10/31 01:13:29;;;;;;;0.20;0.20;;;13.10;99.90;;;;;;5053896;28;20029;-77
2022/10/31 01:15:56;;;;;;;0.20;0.20;;;13.20;99.90;;;;;;5053707;28;20025;-77
2022/10/31 01:18:23;;;;;;;0.20;0.20;;;13.40;99.90;;;;;;5054459;28;20461;-77
2022/10/31 01:20:58;;;;;;;0.10;0.10;;;13.40;99.90;;;;;;5053842;28;20473;-77
2022/10/31 01:23:23;;;;;;;0.55;0.55;;;13.30;99.90;;;;;;5035806;28;20045;-77
2022/10/31 01:25:49;;;;;;;0.20;0.20;;;13.00;99.90;;;;;;5035627;28;20504;-76
2022/10/31 01:28:15;;;;;;;0.20;0.20;;;13.00;99.90;;;;;;5053687;28;20056;-76
2022/10/31 01:30:40;;;;;;;0.20;0.20;;;13.00;99.90;;;;;;5035802;28;20100;-76
2022/10/31 01:33:06;;;;;;;1.73;0.82;;;12.90;99.90;;;;;;5035620;28;20021;-76
2022/10/31 01:35:32;;;;;;;0.25;0.25;;;12.80;99.90;;;;;;5019007;28;20025;-76
2022/10/31 01:37:58;;;;;;;0.20;0.20;;;12.80;99.90;;;;;;5035741;28;20083;-76
2022/10/31 01:40:23;;;;;;;0.20;0.20;;;12.70;99.90;;;;;;5035729;28;20025;-76
2022/10/31 01:42:49;;;;;;;0.20;0.20;;;12.50;99.90;;;;;;5053329;28;20033;-76
2022/10/31 01:45:16;;;;;;;0.20;0.20;;;12.50;99.90;;;;;;5053179;28;20027;-76
2022/10/31 01:47:48;;;;;;;1.05;0.95;;;12.70;99.90;;;;;;5035372;28;20094;-76
2022/10/31 01:50:31;;;;;;;2.45;1.55;;;12.80;99.90;;;;;;5053155;28;20685;-76
2022/10/31 01:52:58;;;;;;;0.20;0.20;;;12.90;99.90;;;;;;5053305;28;20021;-76
2022/10/31 01:55:34;;;;;;;0.20;0.20;;;13.00;99.90;;;;;;5035331;28;20035;-76
2022/10/31 01:58:09;;;;;;;0.20;0.20;;;13.00;99.90;;;;;;5034886;28;20025;-76
2022/10/31 02:00:36;;;;;;;0.20;0.20;;;12.90;99.90;;;;;;5053127;28;20025;-76
2022/10/31 02:03:02;;;;;;;0.20;0.20;;;13.00;99.90;;;;;;5035127;28;20035;-76
2022/10/31 02:05:29;;;;;;;0.20;0.20;;;12.80;99.90;;;;;;5034933;28;20029;-76
2022/10/31 02:08:12;;;;;;;33.22;2.53;;;12.70;99.90;;;;;;5034930;28;20116;-76
2022/10/31 02:10:38;;;;;;;1.65;1.17;;;12.60;99.90;;;;;;5052890;28;20477;-76
2022/10/31 02:13:06;;;;;;;0.20;0.20;;;12.50;99.90;;;;;;5018494;28;20024;-76
2022/10/31 02:15:34;;;;;;;0.20;0.20;;;12.50;99.90;;;;;;5052448;28;20025;-76
2022/10/31 02:18:00;;;;;;;0.20;0.20;;;12.40;99.90;;;;;;5052850;28;20530;-76
2022/10/31 02:20:31;;;;;;;0.17;0.17;;;12.50;99.90;;;;;;5035091;28;20108;-76
2022/10/31 02:23:09;;;;;;;0.28;0.28;;;12.30;99.90;;;;;;5034771;28;20032;-76
2022/10/31 02:26:02;;;;;;;0.20;0.20;;;12.30;99.90;;;;;;5034443;28;20063;-76
2022/10/31 02:28:40;;;;;;;2.70;0.68;;;12.40;99.90;;;;;;5034724;28;20021;-76
2022/10/31 02:31:33;;;;;;;0.20;0.20;;;12.30;99.90;;;;;;5052463;28;20495;-77
2022/10/31 02:34:19;;;;;;;4.50;0.80;;;12.40;99.90;;;;;;5018175;28;20053;-76
2022/10/31 02:37:03;;;;;;;0.15;0.15;;;12.50;99.90;;;;;;5034274;28;20511;-76
2022/10/31 02:39:37;;;;;;;0.10;0.10;;;12.70;99.90;;;;;;5034696;28;20032;-76
2022/10/31 02:42:18;;;;;;;2.03;1.30;;;12.70;99.90;;;;;;5034599;28;20049;-76
2022/10/31 02:45:07;;;;;;;13.35;2.10;;;12.80;99.90;;;;;;5052421;28;20086;-76
2022/10/31 02:47:37;;;;;;;0.10;0.10;;;12.90;99.90;;;;;;5034302;28;20397;-76
2022/10/31 02:50:26;;;;;;;0.20;0.20;;;12.90;99.90;;;;;;5034553;28;20056;-76
2022/10/31 02:52:53;;;;;;;0.20;0.20;;;13.00;99.90;;;;;;5034327;28;20020;-76
2022/10/31 02:55:25;;;;;;;0.10;0.10;;;12.90;99.90;;;;;;5034251;28;20032;-76
2022/10/31 02:57:54;;;;;;;0.20;0.20;;;12.90;99.90;;;;;;5052208;28;20103;-76
2022/10/31 03:00:20;;;;;;;0.17;0.17;;;13.00;99.90;;;;;;5034542;28;20039;-76
2022/10/31 03:02:57;;;;;;;0.20;0.20;;;13.00;99.90;;;;;;5034300;28;20574;-76
2022/10/31 03:06:03;;;;;;;0.15;0.15;;;12.90;99.90;;;;;;5051896;28;20388;-76
2022/10/31 03:08:50;;;;;;;0.10;0.10;;;13.00;99.90;;;;;;5033963;28;20485;-76
2022/10/31 03:11:21;;;;;;;0.20;0.20;;;13.20;99.90;;;;;;5051273;28;20021;-76
2022/10/31 03:13:57;;;;;;;0.10;0.10;;;13.20;99.90;;;;;;5034085;28;20086;-76
2022/10/31 03:16:29;;;;;;;0.10;0.10;;;13.30;99.90;;;;;;5051656;28;20439;-76
2022/10/31 03:18:57;;;;;;;;;;;13.30;99.90;;;;;;5052274;28;20029;-76
2022/10/31 03:21:32;;;;;;;0.20;0.20;;;13.30;99.90;;;;;;5051843;28;19928;-76
2022/10/31 03:23:59;;;;;;;0.10;0.10;;;13.30;99.90;;;;;;5051866;28;20024;-76
2022/10/31 03:26:26;;;;;;;0.20;0.20;;;13.40;99.90;;;;;;5033736;28;20025;-76
2022/10/31 03:29:06;;;;;;;0.10;0.10;;;13.40;99.90;;;;;;5051885;28;20075;-76
2022/10/31 03:31:54;;;;;;;0.20;0.20;;;13.30;99.90;;;;;;5033930;28;20021;-76
2022/10/31 03:34:21;;;;;;;1.25;1.17;;;13.10;99.90;;;;;;5017494;28;20036;-76
2022/10/31 03:36:51;;;;;;;0.20;0.20;;;12.80;99.90;;;;;;5033721;28;20385;-77
2022/10/31 03:39:19;;;;;;;0.10;0.10;;;12.80;99.90;;;;;;5051763;28;20031;-78
2022/10/31 03:42:08;;;;;;;0.20;0.20;;;12.70;99.90;;;;;;5017539;28;20025;-76
2022/10/31 03:44:35;;;;;;;0.22;0.22;;;12.70;99.90;;;;;;5050950;28;20072;-76
2022/10/31 03:47:02;;;;;;;0.20;0.20;;;12.80;99.90;;;;;;5016919;28;20032;-77
2022/10/31 03:49:29;;;;;;;0.10;0.10;;;12.80;99.90;;;;;;5033858;28;20025;-78
2022/10/31 03:52:05;;;;;;;0.20;0.20;;;12.80;99.90;;;;;;5017081;28;20048;-76
2022/10/31 03:54:42;;;;;;;0.10;0.10;;;13.00;99.90;;;;;;5033552;28;20029;-76
2022/10/31 03:57:43;;;;;;;0.80;0.30;;;12.90;99.90;;;;;;5051506;28;20503;-76
2022/10/31 04:00:12;;;;;;;0.20;0.20;;;12.60;99.90;;;;;;5040484;28;20048;-76
2022/10/31 04:02:45;;;;;;;0.20;0.20;;;12.50;99.90;;;;;;5051401;28;20025;-77
2022/10/31 04:05:12;;;;;;;0.20;0.20;;;12.40;99.90;;;;;;5051311;28;20389;-76
2022/10/31 04:07:43;;;;;;;0.20;0.20;;;12.30;99.90;;;;;;5051297;28;20033;-76
2022/10/31 04:10:13;;;;;;;0.52;0.52;;;12.40;99.90;;;;;;5033303;28;20025;-76
2022/10/31 04:12:41;;;;;;;0.20;0.20;;;12.40;99.90;;;;;;5033422;28;20108;-77
2022/10/31 04:15:09;;;;;;;0.20;0.20;;;12.50;99.90;;;;;;5033293;28;20068;-77
2022/10/31 04:17:40;;;;;;;0.20;0.20;;;12.50;99.90;;;;;;5033549;28;20051;-76
2022/10/31 04:20:06;;;;;;;0.30;0.30;;;12.50;99.90;;;;;;5033632;28;20053;-76
2022/10/31 04:22:32;;;;;;;0.57;0.57;;;12.40;99.90;;;;;;5053758;28;20049;-76
2022/10/31 04:24:58;;;;;;;0.73;0.73;;;12.40;99.90;;;;;;5054680;28;20463;-76
2022/10/31 04:27:23;;;;;;;0.20;0.20;;;12.50;99.90;;;;;;5054747;28;20040;-77
2022/10/31 04:29:49;;;;;;;0.20;0.20;;;12.60;99.90;;;;;;5037029;28;20044;-76
2022/10/31 04:32:15;;;;;;;0.20;0.20;;;12.70;99.90;;;;;;5036948;28;20025;-76
2022/10/31 04:34:41;;;;;;;0.10;0.10;;;12.80;99.90;;;;;;5036946;28;20096;-76
2022/10/31 04:37:06;;;;;;;0.20;0.20;;;12.70;99.90;;;;;;5054480;28;20099;-76
2022/10/31 04:39:32;;;;;;;0.20;0.20;;;12.60;99.90;;;;;;5054783;28;20465;-76
2022/10/31 04:41:58;;;;;;;2.72;1.85;;;12.50;99.90;;;;;;5054543;28;20033;-76
2022/10/31 04:44:24;;;;;;;0.20;0.20;;;12.60;99.90;;;;;;5036557;28;20063;-76
2022/10/31 04:46:49;;;;;;;0.22;0.22;;;12.50;99.90;;;;;;5054273;28;20037;-76
2022/10/31 04:49:15;;;;;;;0.20;0.20;;;12.50;99.90;;;;;;5020052;28;20021;-76
2022/10/31 04:51:41;;;;;;;0.20;0.20;;;12.60;99.90;;;;;;5036680;28;20485;-76
2022/10/31 04:54:07;;;;;;;0.20;0.20;;;12.70;99.90;;;;;;5054420;28;20056;-77
2022/10/31 04:56:32;;;;;;;4.97;3.30;;;12.60;99.90;;;;;;5054068;28;20029;-76
2022/10/31 04:58:58;;;;;;;0.20;0.20;;;12.60;99.90;;;;;;5054268;28;20031;-77
2022/10/31 05:01:24;;;;;;;0.20;0.20;;;12.60;99.90;;;;;;5054246;28;20025;-77
2022/10/31 05:03:50;;;;;;;0.32;0.32;;;12.50;99.90;;;;;;5054234;28;20064;-76
2022/10/31 05:06:16;;;;;;;0.20;0.20;;;12.40;99.90;;;;;;5035992;28;20032;-76
2022/10/31 05:08:42;;;;;;;0.20;0.20;;;12.20;99.90;;;;;;5054000;28;20021;-76
2022/10/31 05:11:07;;;;;;;0.40;0.32;;;12.20;99.90;;;;;;5054139;28;20385;-77
2022/10/31 05:13:33;;;;;;;0.20;0.20;;;12.00;99.90;;;;;;5053983;28;20029;-76
2022/10/31 05:15:59;;;;;;;0.32;0.32;;;12.00;99.90;;;;;;5053808;28;20025;-77
2022/10/31 05:18:25;;;;;;;0.20;0.20;;;11.80;99.90;;;;;;5054020;28;20025;-76
2022/10/31 05:20:51;;;;;;;0.20;0.20;;;11.90;99.90;;;;;;5019492;28;20047;-76
2022/10/31 05:23:16;;;;;;;0.20;0.20;;;11.90;99.90;;;;;;5035943;28;20025;-77
2022/10/31 05:25:42;;;;;;;0.20;0.20;;;12.10;99.90;;;;;;5035534;28;20036;-76
2022/10/31 05:28:08;;;;;;;0.20;0.20;;;11.90;99.90;;;;;;5035900;28;20028;-76
2022/10/31 05:30:34;;;;;;;0.13;0.13;;;11.80;99.90;;;;;;5053710;28;20579;-76
2022/10/31 05:33:00;;;;;;;0.25;0.25;;;11.60;99.90;;;;;;5018328;28;20108;-76
2022/10/31 05:35:30;;;;;;;0.68;0.68;;;11.50;99.90;;;;;;5053334;28;20526;-76
2022/10/31 05:37:57;;;;;;;0.20;0.20;;;11.60;99.90;;;;;;5019063;28;20025;-76
2022/10/31 05:40:24;;;;;;;0.20;0.20;;;11.60;99.90;;;;;;5019008;28;20032;-77
2022/10/31 05:42:55;;;;;;;0.20;0.20;;;11.40;99.90;;;;;;5035379;28;20029;-76
2022/10/31 05:45:21;;;;;;;0.20;0.20;;;11.50;99.90;;;;;;5053116;28;20501;-77
2022/10/31 05:47:51;;;;;;;0.47;0.47;;;11.60;99.90;;;;;;5053016;28;20485;-78
2022/10/31 05:50:17;;;;;;;0.20;0.20;;;11.60;99.90;;;;;;5053375;28;20028;-76
2022/10/31 05:52:42;;;;;;;0.20;0.20;;;11.50;99.90;;;;;;5035311;28;20021;-76
2022/10/31 05:55:08;;;;;;;0.20;0.20;;;11.50;99.90;;;;;;5053050;28;20049;-77
2022/10/31 05:57:34;;;;;;;2.28;2.17;;;11.60;99.90;;;;;;5035396;28;20099;-77
2022/10/31 06:00:00;;;;;;;0.20;0.20;;;11.70;99.90;;;;;;5053097;28;20362;-76
2022/10/31 06:02:26;;;;;;;0.20;0.20;;;11.70;99.90;;;;;;5052880;28;20025;-77
2022/10/31 06:04:52;;;;;;;0.47;0.47;;;11.90;99.90;;;;;;5052978;28;20108;-77
2022/10/31 06:07:18;;;;;;;0.20;0.20;;;11.90;99.90;;;;;;5018331;28;20064;-77
2022/10/31 06:09:44;;;;;;;0.20;0.20;;;12.00;99.90;;;;;;5034890;28;20029;-77
2022/10/31 06:12:09;;;;;;;0.20;0.20;;;12.10;99.90;;;;;;5018340;28;20021;-77
2022/10/31 06:14:35;;;;;;;0.20;0.20;;;12.30;99.90;;;;;;5018307;28;20385;-77
2022/10/31 06:17:01;;;;;;;0.20;0.20;;;12.20;99.90;;;;;;5052633;28;20055;-77
2022/10/31 06:19:27;;;;;;;0.25;0.25;;;12.40;99.90;;;;;;5052718;28;20033;-77
2022/10/31 06:21:52;;;;;;;0.20;0.20;;;12.60;99.90;;;;;;5018254;28;20029;-77
2022/10/31 06:24:18;;;;;;;0.17;0.17;;;12.50;99.90;;;;;;5034802;28;20114;-79
2022/10/31 06:26:44;;;;;;;0.20;0.20;;;12.50;99.90;;;;;;5052366;28;20485;-77
2022/10/31 06:29:09;;;;;;;0.10;0.10;;;12.50;99.90;;;;;;5052573;28;20029;-77
2022/10/31 06:31:35;;;;;;;0.50;0.50;;;12.20;99.90;;;;;;5017201;28;20111;-77
2022/10/31 06:34:01;;;;;;;0.20;0.20;;;12.20;99.90;;;;;;5049278;28;20388;-77
2022/10/31 06:36:27;;;;;;;0.20;0.20;;;12.20;99.90;;;;;;5032623;28;20021;-77
2022/10/31 06:38:52;;;;;;;0.30;0.30;;;12.20;99.90;;;;;;5034215;28;20116;-78
2022/10/31 06:41:18;;;;;;;0.20;0.20;;;12.30;99.90;;;;;;5041474;28;20025;-77
2022/10/31 06:43:47;;;;;;;0.20;0.20;;;12.40;99.90;;;;;;5052558;28;20029;-77
2022/10/31 06:46:12;;;;;;;0.20;0.20;;;12.30;99.90;;;;;;5037168;28;20021;-77
2022/10/31 06:48:41;;;;;;;0.15;0.15;;;12.40;99.90;;;;;;5048234;28;20044;-77
2022/10/31 06:51:07;;;;;;;0.82;0.28;;;12.40;99.90;;;;;;5051007;28;20017;-77
2022/10/31 06:53:32;;;;;;;0.40;0.40;;;12.40;99.90;;;;;;5038397;28;20366;-77
2022/10/31 06:55:58;;;;;;;5.63;2.72;;;12.30;99.90;;;;;;5035653;28;20476;-77
2022/10/31 06:58:24;;;;;;;0.40;0.40;;;12.30;99.90;;;;;;5034320;28;20033;-77
2022/10/31 07:00:50;;;;;;;0.20;0.20;;;12.50;99.90;;;;;;5052683;28;20024;-77
2022/10/31 07:03:16;;;;;;;0.10;0.10;;;12.50;99.90;;;;;;5050636;28;20025;-77
2022/10/31 07:05:43;;;;;;;0.20;0.20;;;12.50;99.90;;;;;;5051229;28;20029;-77
2022/10/31 07:08:13;;;;;;;0.40;0.40;;;12.60;99.90;;;;;;5018554;28;20123;-77
2022/10/31 07:10:40;;;;;;;0.20;0.20;;;12.60;99.90;;;;;;5030896;28;20013;-78
2022/10/31 07:13:10;;;;;;;0.10;0.10;;;12.80;99.90;;;;;;5049149;28;20440;-77
2022/10/31 07:15:39;;;;;;;0.20;0.20;;;13.00;99.90;;;;;;5015587;28;20099;-77
2022/10/31 07:18:10;;;;;;;0.17;0.17;;;13.10;99.90;;;;;;5058047;28;20028;-77
2022/10/31 07:20:36;;;;;;;0.20;0.20;;;13.10;99.90;;;;;;5070578;28;20102;-77
2022/10/31 07:23:02;;;;;;;0.10;0.10;;;13.00;99.90;;;;;;5051240;28;20035;-77
2022/10/31 07:25:28;;;;;;;0.20;0.20;;;13.00;99.90;;;;;;5031698;28;20154;-77
2022/10/31 07:27:55;;;;;;;0.30;0.25;;;12.90;99.90;;;;;;5032918;28;20552;-77
2022/10/31 07:30:20;;;;;;;0.30;0.30;;;13.00;99.90;;;;;;5032007;28;20025;-77
2022/10/31 07:32:48;;;;;;;0.20;0.20;;;13.00;99.90;;;;;;5045316;28;20499;-77
2022/10/31 07:35:17;;;;;;;0.20;0.20;;;13.10;99.90;;;;;;5050844;28;20025;-77
2022/10/31 07:37:43;;;;;;;0.20;0.20;;;13.30;99.90;;;;;;5039286;28;20040;-77
2022/10/31 07:40:10;;;;;;;0.10;0.10;;;13.50;99.90;;;;;;5033742;28;20483;-77
2022/10/31 07:42:37;;;;;;;0.30;0.30;;;13.30;99.90;;;;;;5032331;28;20111;-77
2022/10/31 07:45:05;;;;;;;3.70;3.50;;;13.30;99.90;;;;;;5051098;28;20029;-77
2022/10/31 07:47:38;;;;;;;0.10;0.10;;;13.40;99.90;;;;;;5041686;28;20037;-77
2022/10/31 07:50:04;;;;;;;0.20;0.20;;;13.50;99.90;;;;;;5033262;28;20017;-77
2022/10/31 07:52:29;;;;;;;0.20;0.20;;;13.60;99.90;;;;;;5051035;28;20021;-77
2022/10/31 07:54:55;;;;;;;0.10;0.10;;;13.90;99.90;;;;;;5051489;28;20083;-77
2022/10/31 07:57:21;;;;;;;0.10;0.10;;;14.00;99.90;;;;;;5032921;28;20447;-78
2022/10/31 07:59:47;;;;;;;0.10;0.10;;;14.10;99.90;;;;;;5031320;28;20099;-77
2022/10/31 08:02:13;;;;;;;0.20;0.20;;;14.30;99.90;;;;;;5016393;28;20040;-77
2022/10/31 08:04:38;;;;;;;0.20;0.20;;;14.50;99.90;;;;;;5044419;28;20130;-77
2022/10/31 08:07:04;;;;;;;0.30;0.30;;;14.60;99.90;;;;;;5032593;28;20151;-77
2022/10/31 08:09:30;;;;;;;0.20;0.20;;;14.70;99.90;;;;;;5044085;28;20025;-77
2022/10/31 08:11:56;;;;;;;0.10;0.10;;;14.80;99.90;;;;;;5031342;28;20025;-77
2022/10/31 08:14:22;;;;;;;0.10;0.10;;;14.90;99.90;;;;;;5043386;28;20025;-78
2022/10/31 08:16:48;;;;;;;0.10;0.10;;;15.00;99.90;;;;;;5043524;28;20396;-77
2022/10/31 08:19:13;;;;;;;0.10;0.10;;;15.20;99.90;;;;;;5043152;28;20090;-77
2022/10/31 08:21:39;;;;;;;0.10;0.10;;;15.40;99.90;;;;;;5032241;28;20467;-77
2022/10/31 08:24:05;;;;;;;0.10;0.10;;;15.50;99.90;;;;;;5043736;28;20033;-77
2022/10/31 08:26:31;;;;;;;0.10;0.10;;;15.60;99.90;;;;;;5030418;28;20029;-77
2022/10/31 08:28:57;;;;;;;0.10;0.10;;;15.70;99.90;;;;;;5033523;28;20400;-77
2022/10/31 08:31:25;;;;;;;0.10;0.10;;;15.80;99.90;;;;;;5044459;28;20028;-77
2022/10/31 08:33:52;;;;;;;0.05;0.05;;;15.90;99.90;;;;;;5032102;28;20132;-78
2022/10/31 08:36:18;;;;;;;0.10;0.10;;;16.00;99.90;;;;;;5043701;28;20043;-78
2022/10/31 08:38:46;;;;;;;0.10;0.10;;;16.10;99.90;;;;;;5043315;28;20021;-77
2022/10/31 08:41:11;;;;;;;0.10;0.10;;;16.10;99.90;;;;;;5033188;28;20025;-77
2022/10/31 08:43:37;;;;;;;0.10;0.10;;;16.30;99.90;;;;;;5042739;28;20033;-77
2022/10/31 08:46:03;;;;;;;0.35;0.35;;;16.40;99.90;;;;;;5031665;28;20416;-77
2022/10/31 08:48:29;;;;;;;0.43;0.43;;;16.50;99.90;;;;;;5042867;28;20039;-77
2022/10/31 08:50:58;;;;;;;2.63;1.38;;;16.70;99.90;;;;;;5033398;28;20040;-77
2022/10/31 08:53:24;;;;;;;0.20;0.20;;;16.70;99.90;;;;;;5032492;28;20029;-77
2022/10/31 08:55:50;;;;;;;0.10;0.10;;;16.80;99.90;;;;;;5042530;28;20021;-77
2022/10/31 08:58:17;;;;;;;0.10;0.10;;;16.90;99.90;;;;;;5031481;28;20025;-77
2022/10/31 09:00:45;;;;;;;0.10;0.10;;;17.00;99.90;;;;;;5043610;28;20555;-77
2022/10/31 09:03:19;;;;;;;0.10;0.10;;;17.20;99.90;;;;;;5041334;28;20401;-77
2022/10/31 09:05:45;;;;;;;0.15;0.15;;;17.40;99.90;;;;;;5032539;28;20040;-77
2022/10/31 09:08:12;;;;;;;0.10;0.10;;;17.50;99.90;;;;;;5041810;28;20033;-77
2022/10/31 09:10:38;;;;;;;0.08;0.08;;;17.60;99.90;;;;;;5032768;28;20021;-77
2022/10/31 09:13:10;;;;;;;0.10;0.10;;;17.80;99.90;;;;;;5034015;28;20017;-77
2022/10/31 09:15:38;;;;;;;0.10;0.10;;;18.00;99.70;;;;;;5043065;28;20580;-78
2022/10/31 09:18:05;;;;;;;0.00;0.00;;;18.20;99.30;;;;;;5043083;28;20033;-77
2022/10/31 09:20:32;;;;;;;0.10;0.10;;;18.40;98.50;;;;;;5042604;28;20098;-77
2022/10/31 09:23:00;;;;;;;0.00;0.00;;;18.70;98.50;;;;;;5042590;28;20059;-78
2022/10/31 09:25:26;;;;;;;0.00;0.00;;;18.90;98.40;;;;;;5017864;28;20033;-77
2022/10/31 09:27:59;;;;;;;0.10;0.10;;;19.20;97.20;;;;;;5029268;28;20516;-77
2022/10/31 09:30:26;;;;;;;0.10;0.10;;;19.60;95.90;;;;;;5018120;28;20490;-79
2022/10/31 09:33:12;;;;;;;0.00;0.00;;;20.00;93.80;;;;;;5043321;28;20025;-78
2022/10/31 09:35:38;;;;;;;0.00;0.00;;;20.40;90.70;;;;;;5029492;28;20463;-78
2022/10/31 09:38:06;;;;;;;0.00;0.00;;;20.90;89.20;;;;;;5032586;28;20555;-78
2022/10/31 09:40:43;;;;;;;0.15;0.15;;;21.40;83.50;;;;;;5042104;28;20032;-78
2022/10/31 09:43:09;;;;;;;1.38;1.30;;;21.80;80.80;;;;;;5032622;28;20029;-78
2022/10/31 09:45:50;;;;;;;0.00;0.00;;;21.80;79.10;;;;;;5043680;28;20043;-77
2022/10/31 09:48:33;;;;;;;0.10;0.10;;;22.00;77.40;;;;;;5041753;28;20567;-78
2022/10/31 09:51:04;;;;;;;0.20;0.15;;;21.80;77.90;;;;;;5032050;28;20033;-78
2022/10/31 09:53:42;;;;;;;0.03;0.03;;;22.20;76.70;;;;;;5031738;28;20906;-77
2022/10/31 09:56:16;;;;;;;0.17;0.17;;;22.60;76.20;;;;;;5043250;28;20465;-77
2022/10/31 09:58:48;;;;;;;0.00;0.00;;;23.40;74.30;;;;;;5017559;28;20044;-77
2022/10/31 10:01:25;;;;;;;;;;;23.10;74.70;;;;;;5042730;28;20493;-78
2022/10/31 10:03:57;;;;;;;0.00;0.00;;;23.00;75.00;;;;;;5015467;28;20379;-77
2022/10/31 10:06:29;;;;;;;0.00;0.00;;;22.50;77.20;;;;;;5043709;28;20039;-78
2022/10/31 10:08:56;;;;;;;0.43;0.43;;;22.90;77.10;;;;;;5030995;28;20033;-77
2022/10/31 10:11:43;;;;;;;0.00;0.00;;;23.00;74.10;;;;;;5016482;28;20037;-78
2022/10/31 10:14:51;;;;;;;0.00;0.00;;;22.80;74.50;;;;;;5033406;28;20024;-78
2022/10/31 10:17:31;;;;;;;2.92;0.90;;;22.90;71.20;;;;;;5042728;28;20041;-78
2022/10/31 10:20:08;;;;;;;0.00;0.00;;;22.90;72.00;;;;;;5043046;28;20499;-78
2022/10/31 10:22:46;;;;;;;0.00;0.00;;;22.90;71.50;;;;;;5032272;28;20640;-78
2022/10/31 10:25:23;;;;;;;0.00;0.00;;;22.70;71.20;;;;;;5034898;28;20033;-77
2022/10/31 10:28:21;;;;;;;0.00;0.00;;;22.20;72.00;;;;;;5032135;28;20029;-78
2022/10/31 10:30:46;;;;;;;0.00;0.00;;;22.30;72.20;;;;;;5024850;28;20082;-78
2022/10/31 10:33:19;;;;;;;0.00;0.00;;;22.20;73.20;;;;;;5042740;28;20112;-77
2022/10/31 10:35:53;;;;;;;0.00;0.00;;;21.60;75.60;;;;;;5031019;28;20033;-77
2022/10/31 10:38:52;;;;;;;0.22;0.15;;;21.60;76.90;;;;;;5041467;28;20381;-77
2022/10/31 10:41:22;;;;;;;0.03;0.03;;;21.50;77.60;;;;;;5042173;28;20036;-78
2022/10/31 10:43:53;;;;;;;0.45;0.45;;;21.20;78.80;;;;;;5042164;28;20033;-77
2022/10/31 10:49:17;;;;;;;0.00;0.00;;;21.20;78.70;;;;;;5042643;28;20313;-77
2022/10/31 10:51:50;;;;;;;0.00;0.00;;;21.20;78.70;;;;;;5041685;28;20425;-77
2022/10/31 10:54:36;;;;;;;0.10;0.10;;;21.20;80.00;;;;;;5042096;28;20029;-77
2022/10/31 10:57:30;;;;;;;0.00;0.00;;;21.20;80.20;;;;;;5040035;28;20039;-77
2022/10/31 10:59:57;;;;;;;0.10;0.10;;;21.30;81.20;;;;;;5042230;28;20068;-77
2022/10/31 11:02:30;;;;;;;0.43;0.40;;;21.20;82.20;;;;;;5042740;28;20021;-77
2022/10/31 11:04:58;;;;;;;0.20;0.20;;;21.10;83.40;;;;;;5038373;28;20029;-78
2022/10/31 11:07:24;;;;;;;0.00;0.00;;;21.00;84.20;;;;;;5030765;28;20082;-78
2022/10/31 11:09:49;;;;;;;0.00;0.00;;;20.90;84.70;;;;;;5030979;28;20025;-77
2022/10/31 11:12:33;;;;;;;0.00;0.00;;;20.80;85.50;;;;;;5042306;28;20068;-78
2022/10/31 11:15:08;;;;;;;5.05;4.68;;;20.60;86.10;;;;;;5030363;28;20021;-78
2022/10/31 11:17:39;;;;;;;0.10;0.10;;;20.40;86.30;;;;;;5040840;28;20150;-77
2022/10/31 11:20:11;;;;;;;0.08;0.08;;;20.30;86.80;;;;;;5040759;28;20028;-78
2022/10/31 11:22:37;;;;;;;0.08;0.08;;;20.20;86.40;;;;;;5040800;28;20601;-78
2022/10/31 11:25:18;;;;;;;0.00;0.00;;;20.10;86.50;;;;;;5031716;28;20033;-77
2022/10/31 11:27:45;;;;;;;0.00;0.00;;;20.00;86.40;;;;;;5042001;28;20064;-78
2022/10/31 11:30:13;;;;;;;0.08;0.08;;;20.10;86.20;;;;;;5031399;28;20087;-77
2022/10/31 11:32:48;;;;;;;0.10;0.10;;;20.30;85.90;;;;;;5044369;28;21062;-78
2022/10/31 11:35:18;;;;;;;0.00;0.00;;;20.40;86.30;;;;;;5045459;28;20033;-77
2022/10/31 11:37:46;;;;;;;0.20;0.20;;;20.60;85.30;;;;;;5018887;28;20041;-78
2022/10/31 11:40:24;;;;;;;0.10;0.10;;;20.70;85.70;;;;;;5045342;28;20493;-78
2022/10/31 11:42:53;;;;;;;0.10;0.10;;;20.90;83.90;;;;;;5045828;28;20141;-78
2022/10/31 11:45:33;;;;;;;0.00;0.00;;;21.40;82.20;;;;;;5034850;28;20074;-78
2022/10/31 11:48:00;;;;;;;0.10;0.10;;;21.70;79.50;;;;;;5017788;28;20087;-77
2022/10/31 11:50:38;;;;;;;1.23;1.17;;;22.00;78.80;;;;;;5034474;28;20029;-78
2022/10/31 11:53:11;;;;;;;0.08;0.08;;;21.90;76.90;;;;;;5017805;28;20033;-77
2022/10/31 11:55:39;;;;;;;8.02;2.20;;;21.70;79.20;;;;;;5035719;28;20560;-78
2022/10/31 11:58:21;;;;;;;0.00;0.00;;;21.70;79.50;;;;;;5018466;28;20037;-78
2022/10/31 12:00:52;;;;;;;0.05;0.05;;;21.80;78.60;;;;;;5036202;28;20076;-78
2022/10/31 12:03:21;;;;;;;0.10;0.10;;;21.80;78.90;;;;;;5034303;28;20032;-78
2022/10/31 12:05:55;;;;;;;0.20;0.20;;;21.90;78.90;;;;;;5009994;28;20104;-77
2022/10/31 12:08:21;;;;;;;0.00;0.00;;;21.80;78.20;;;;;;5043249;28;20411;-78
2022/10/31 12:11:22;;;;;;;0.00;0.00;;;21.50;79.60;;;;;;5045170;28;20116;-77
2022/10/31 12:14:14;;;;;;;0.20;0.20;;;21.70;79.30;;;;;;5001000;28;20040;-78
2022/10/31 12:16:51;;;;;;;2.53;0.95;;;21.70;78.50;;;;;;5045327;28;20025;-78
2022/10/31 12:19:40;;;;;;;0.00;0.00;;;21.40;79.00;;;;;;5035507;28;20025;-76
2022/10/31 12:22:19;;;;;;;0.10;0.10;;;21.00;81.20;;;;;;5017314;28;20517;-79
2022/10/31 12:25:09;;;;;;;0.28;0.28;;;20.90;81.20;;;;;;5045743;28;20458;-78
2022/10/31 12:27:47;;;;;;;0.30;0.30;;;21.00;81.70;;;;;;5036712;28;20048;-79
2022/10/31 12:30:19;;;;;;;0.00;0.00;;;20.70;82.50;;;;;;5036291;28;20036;-78
2022/10/31 12:33:27;;;;;;;0.00;0.00;;;20.40;82.60;;;;;;5033420;28;20497;-79
2022/10/31 12:35:55;;;;;;;0.10;0.10;;;20.30;83.50;;;;;;5044121;28;20093;-79
2022/10/31 12:38:53;;;;;;;0.00;0.00;;;20.30;83.20;;;;;;5045659;28;20539;-79
2022/10/31 12:41:47;;;;;;;0.00;0.00;;;20.30;83.80;;;;;;5027242;28;20461;-76
2022/10/31 12:44:31;;;;;;;0.00;0.00;;;20.30;84.50;;;;;;5031703;28;20037;-76
2022/10/31 12:47:22;;;;;;;0.00;0.00;;;20.20;84.60;;;;;;5042899;28;20040;-76
2022/10/31 12:49:57;;;;;;;0.00;0.00;;;19.90;85.50;;;;;;5019467;28;20044;-78
2022/10/31 12:52:32;;;;;;;0.22;0.22;;;19.60;86.80;;;;;;5045824;28;20040;-78
2022/10/31 12:55:16;;;;;;;0.65;0.65;;;19.70;87.00;;;;;;5034582;28;20025;-78
2022/10/31 12:57:53;;;;;;;0.05;0.05;;;19.70;85.90;;;;;;5009744;28;20431;-79
2022/10/31 13:00:20;;;;;;;0.10;0.10;;;19.70;86.60;;;;;;5018449;28;20044;-78
2022/10/31 13:02:51;;;;;;;0.10;0.10;;;19.80;86.50;;;;;;5042717;28;20037;-78
2022/10/31 13:05:31;;;;;;;0.00;0.00;;;20.00;85.90;;;;;;5032595;28;20040;-78
2022/10/31 13:08:07;;;;;;;0.00;0.00;;;20.00;86.10;;;;;;5035030;28;20505;-78
2022/10/31 13:10:39;;;;;;;0.05;0.05;;;20.10;85.50;;;;;;5044325;28;20037;-79